METAR Data
IDs: Format: Raw Decoded Include TAF

Data at: 2348 UTC 24 Apr 2019

PACD 242343Z 01012KT 1SM -SN BR BKN014 BKN027 OVC060 01/M02 A3007 RMK AO2 RAE35UPB2257E15B35E36SNB15E25B36 P0000 T00061017
PACD 242338Z 01012KT 2 1/2SM -SN FEW010 BKN018 OVC060 01/M02 A3006 RMK AO2 VIS 1V5 RAE35UPB2257E15B35E36SNB15E25B36 P0000 T00111017
PACD 242253Z 01007KT 10SM -RA SCT026 BKN034 02/M02 A3006 RMK AO2 SLP179 P0000 T00171022
PACD 242153Z 35009KT 10SM -RA FEW037 03/M02 A3005 RMK AO2 RAB05UPB24E26 SLP175 P0000 T00281022
PACD 242053Z 34006KT 10SM FEW015 BKN044 02/M03 A3003 RMK AO2 SLP172 60000 T00221028 53011
PACD 241953Z 30004KT 10SM BKN048 02/M03 A3002 RMK AO2 SNE19 SLP166 P0000 T00171028
PACD 241855Z 35007KT 3SM -SN BR FEW009 SCT018 OVC034 00/M02 A3000 RMK AO2 P0000 T00001022
PACD 241853Z 35007KT 3SM -SN BR FEW009 BKN027 OVC037 00/M02 A3000 RMK AO2 SNB47 SLP161 P0000 T00001022
PACD 241850Z AUTO 35006KT 2 1/2SM -SN BR FEW007 BKN017 OVC032 00/M02 A3000 RMK AO2 VIS 1 1/4V5 SNB47 P0000 TSNO
PACD 241829Z AUTO 00000KT 10SM BKN026 BKN036 01/M02 A3000 RMK AO2 T00061022 TSNO
PACD 241753Z AUTO 30005KT 10SM CLR M02/M03 A2999 RMK AO2 SNB04E21 SLP156 P0000 60001 I6000 T10171033 11011 21039 52020 TSNO
PACD 241726Z AUTO 30004KT 9SM FEW012 SCT028 BKN032 M02/M03 A2998 RMK AO2 SNB04E21 P0000 T10221033 TSNO
PACD 241653Z AUTO 34004KT 9SM BKN018 OVC025 M03/M04 A2997 RMK AO2 SNB1555E26 SLP149 P0001 T10281039 TSNO
PACD 241625Z AUTO 00000KT 5SM -SN BR FEW006 BKN017 OVC024 M02/M03 A2996 RMK AO2 SNB1555 P0001 T10221028 TSNO
PACD 241619Z AUTO 00000KT 2SM -SN BR FEW006 BKN012 OVC018 M02/M02 A2996 RMK AO2 SNB1555 P0001 T10171022 TSNO
PACD 241615Z AUTO 00000KT 1 1/2SM -SN BR BKN014 OVC023 M02/M02 A2996 RMK AO2 VIS 1V2 SNB1555 P0000 T10171022 TSNO
PACD 241601Z AUTO 00000KT 3/4SM -SN BR BKN012 OVC020 M03/M03 A2995 RMK AO2 SNB1555 P0000 T10281033 TSNO
PACD 241557Z AUTO 01003KT 2SM -SN BR BKN014 OVC020 M02/M03 A2995 RMK AO2 SNB55 P0000 T10221033 TSNO
PACD 241553Z AUTO 02005KT 9SM SCT014 BKN020 M03/M04 A2995 RMK AO2 SNE1456 SLP143 P0000 I1000 T10281039 TSNO
PACD 241545Z AUTO 02003KT 3SM BR SCT015 BKN021 M03/M05 A2995 RMK AO2 SNE1456 P0000 I1000 T10331050 TSNO
PACD 241541Z AUTO 36003KT 1 1/2SM BR SCT018 BKN023 M04/M05 A2995 RMK AO2 VIS 3/4V5 SNE1456 P0000 I1000 T10391050 TSNO
PACD 241532Z AUTO 00000KT 1 3/4SM BR SCT023 BKN070 M04/M04 A2994 RMK AO2 SNE1456 P0000 I1000 T10391044 TSNO
PACD 241453Z AUTO 00000KT 6SM -SN BR BKN021 OVC055 M03/M04 A2993 RMK AO2 SNB47 SLP136 P0000 60000 T10281044 53009 TSNO
PACD 241421Z AUTO 32003KT 10SM BKN017 BKN060 OVC080 M03/M04 A2992 RMK AO2 T10281039 TSNO
PACD 241409Z AUTO 32003KT 10SM SCT017 OVC090 M02/M04 A2992 RMK AO2 T10221039 TSNO
PACD 241402Z AUTO 00000KT 10SM BKN017 BKN075 OVC095 M03/M04 A2992 RMK AO2 CIG 011V020 T10281039 TSNO
PACD 241353Z AUTO 29003KT 10SM SCT012 OVC095 M03/M04 A2992 RMK AO2 SLP132 T10281044 TSNO
PACD 241339Z AUTO 00000KT 10SM BKN012 BKN055 OVC090 M03/M04 A2992 RMK AO2 T10281044 TSNO
PACD 241253Z AUTO 21003KT 10SM OVC060 M03/M04 A2991 RMK AO2 SLP129 T10281039 TSNO
PACD 241153Z AUTO 05003KT 10SM FEW048 OVC070 M02/M03 A2990 RMK AO2 SNB1059E23 SLP127 P0000 60008 70031 T10171033 11006 21017 51009 TSNO
PACD 241143Z AUTO 04004KT 10SM SCT011 SCT048 OVC070 M01/M03 A2990 RMK AO2 SNB1059E23 P0000 T10111028 TSNO
PACD 241119Z AUTO 02005KT 6SM -SN BR FEW006 BKN013 OVC034 M01/M03 A2990 RMK AO2 SNB1059 P0000 T10111028 TSNO
PACD 241104Z AUTO 04005KT 3SM -SN BR BKN015 OVC038 M01/M03 A2990 RMK AO2 SNB1059 P0000 T10111028 TSNO
PACD 241053Z AUTO 05006KT 9SM FEW010 OVC014 M01/M03 A2990 RMK AO2 SNB0955E06 SLP125 P0000 T10111028 TSNO
PACD 241037Z AUTO 06006KT 10SM BKN010 OVC014 M01/M03 A2989 RMK AO2 SNB0955E06 P0000 T10111028 TSNO
PACD 241022Z AUTO 00000KT 8SM BKN008 OVC014 M01/M02 A2989 RMK AO2 SNB0955E06 P0000 T10061022 TSNO
PACD 240953Z AUTO 07006KT 7SM OVC010 M01/M02 A2988 RMK AO2 SNE43 SLP120 P0002 T10111022 TSNO
PACD 240940Z AUTO 09006KT 5SM -SN BR FEW004 OVC011 M01/M02 A2988 RMK AO2 P0002 T10111022 TSNO
PACD 240922Z AUTO 11007KT 2 1/2SM -SN BR FEW005 OVC011 M01/M03 A2988 RMK AO2 P0001 T10111028 TSNO
PACD 240914Z AUTO 12006KT 1 3/4SM -SN BR FEW005 OVC011 M02/M03 A2987 RMK AO2 P0001 T10171028 TSNO
PACD 240900Z AUTO 13006KT 1 1/4SM -SN BR BKN012 OVC019 M02/M03 A2988 RMK AO2 P0000 T10171028 TSNO
PACD 240853Z AUTO 12007KT 2SM -SN BR BKN014 OVC019 M02/M03 A2987 RMK AO2 SLP117 P0005 60006 T10171028 400221061 51007 TSNO
PACD 240838Z AUTO 11007KT 2SM -SN BR BKN010 OVC020 M02/M03 A2987 RMK AO2 P0005 T10171028 TSNO
PACD 240828Z AUTO 11007KT 1 1/4SM -SN BR OVC008 M02/M03 A2987 RMK AO2 P0004 T10171033 TSNO
PACD 240810Z AUTO 15005KT 3/4SM -SN BR VV008 M02/M03 A2987 RMK AO2 P0003 T10171028 TSNO
PACD 240753Z AUTO 16004KT 1SM -SN BR VV011 M02/M03 A2987 RMK AO2 SLP116 P0001 T10171028 TSNO
PACD 240745Z AUTO 17005KT 1 1/2SM -SN BR OVC012 M02/M03 A2987 RMK AO2 P0001 T10171028 TSNO
PACD 240726Z AUTO 19006KT 1 3/4SM -SN BR OVC020 M01/M03 A2987 RMK AO2 P0000 T10111028 TSNO
PACD 240704Z AUTO 22005KT 3SM -SN BR OVC028 M01/M03 A2987 RMK AO2 P0000 T10111028 TSNO
PACD 240653Z AUTO 23007KT 3SM -SN BR OVC032 M01/M03 A2987 RMK AO2 SNB33 SLP114 P0000 T10111028 TSNO
PACD 240553Z AUTO 28006KT 10SM SCT035 BKN055 OVC070 01/M05 A2985 RMK AO2 RAB02E05 SLP111 P0000 60002 T00061050 10022 20000 51008 TSNO
PACD 240453Z AUTO 29011KT 10SM FEW034 FEW075 SCT090 01/M06 A2985 RMK AO2 RAB21E22UPB22E31 SLP109 P0000 T00061056 TSNO
PACD 240353Z AUTO 30016KT 10SM FEW100 01/M04 A2985 RMK AO2 SNB0254E14 SLP108 P0001 T00111044 TSNO
PACD 240253Z AUTO 29014KT 8SM FEW015 FEW031 SCT048 01/M02 A2983 RMK AO2 UPB15E18RAB28E36SNE10B18E28 SLP103 P0000 60001 T00111022 51019 TSNO
PACD 240153Z AUTO 32018KT 3SM -SN SCT022 BKN032 OVC049 01/M02 A2981 RMK AO2 PK WND 30028/0140 RAB15E36SNB36 SLP097 P0000 T00111017 TSNO
PACD 240144Z AUTO 31021KT 1 3/4SM -SN FEW020 SCT033 BKN041 01/M02 A2981 RMK AO2 PK WND 30028/0140 RAB15E36SNB36 P0000 T00111017 TSNO
PACD 240053Z 31015KT 10SM SCT022 SCT038 SCT048 02/M03 A2980 RMK AO2 RAB09E20B37E51SNE37 SLP091 P0001 T00171028
PACD 240033Z 27013KT 5SM -SN BR FEW019 BKN024 BKN029 01/M02 A2979 RMK AO2 RAB09E20 P0001 T00061017
PACD 240029Z 28015KT 1 1/4SM -SN SCT018 BKN024 BKN037 01/M02 A2979 RMK AO2 RAB09E20 P0001 T00061022
PACD 240022Z 27016KT 2SM -SN SCT012 BKN018 BKN045 01/M03 A2979 RMK AO2 RAB09E20 P0001 T00061028
PACD 240005Z 27012KT 4SM -SN BR FEW010 BKN017 BKN030 01/M01 A2978 RMK AO2 P0001 T00111011
PACD 232353Z 30015KT 1 3/4SM -SN FEW014 BKN022 OVC042 01/M02 A2977 RMK AO2 VIS 3/4V5 RAE16SNB44 SLP083 P0000 60008 T00111022 10017 21006 53009
PACD 232349Z 26015KT 2 1/2SM -SN FEW020 BKN024 OVC042 01/M02 A2977 RMK AO2 RAE16SNB44 P0000
PACD 232306Z 25015KT 10SM -RA FEW019 SCT024 BKN036 01/M02 A2976 RMK AO2 P0000 T00061022
PACD 232253Z 25013KT 10SM -RA FEW010 BKN022 OVC034 01/M02 A2976 RMK AO2 RAE41B52 SLP077 P0000 T00061022
PACD 232245Z 25017KT 10SM FEW011 BKN016 BKN024 01/M02 A2976 RMK AO2 RAE41 P0000 T00061017
PACD 232236Z 25015KT 10SM -RA BKN014 01/M01 A2976 RMK AO2 P0000 T00061011
PACD 232153Z 27015KT 10SM -RA BKN018 BKN024 02/M02 A2976 RMK RAB2056E2057B07E09B47UPB09E10SNB2057E07 SLP077 P0000 T00171022 VIA AUTODIAL
PACD 232145Z 28017KT 10SM BKN015 BKN022 01/M02 A2975 RMK RAB2056E2057B07E09UPB09E10SNB2057E07 P0000 T00111022 VIA AUTODIAL
PACD 232103Z 25015KT 7SM -SN FEW007 SCT014 BKN120 00/M02 A2974 RMK AO2 RAB2056E2057SNB2057 P0000 T00001022
PACD 232100Z 25016KT 7SM -SN FEW007 BKN014 00/M02 A2975 RMK AO2 RAB2056E2057SNB2057 P0000 T00001022
PACD 232053Z 25012G16KT 4SM BR FEW003 SCT007 OVC019 01/M01 A2975 RMK AO2 SNE13B26E46 SLP074 P0001 60008 T00111011 58001
PACD 232041Z 31004KT 4SM -SN BR FEW003 SCT007 OVC019 01/M01 A2975 RMK AO2 SNE13B26 P0001 T00061011
PACD 232031Z 28006KT 3/4SM -SN BR FEW003 BKN009 OVC020 01/M02 A2975 RMK AO2 SNE13B26 P0000 T00061017
PACD 232028Z 28004KT 2SM -SN BR FEW003 BKN014 OVC020 01/M02 A2975 RMK AO2 SNE13B26 P0000 T00061017
PACD 232024Z 27004KT 8SM SCT005 BKN019 OVC024 01/M02 A2975 RMK AO2 SNE13 P0000 T00061017
PACD 232016Z 26004KT 9SM SCT005 BKN013 OVC032 01/M02 A2975 RMK AO2 SNE13 P0000 T00061017
PACD 232010Z 26004KT 5SM -SN BR BKN003 BKN007 OVC032 01/M01 A2975 RMK AO2 P0000 T00061011
PACD 232006Z 28004KT 2SM -SN BR SCT004 BKN007 OVC016 01/M01 A2975 RMK AO2 P0000 T00061011
PACD 231953Z 29003KT 3/4SM -SN BR BKN008 OVC011 01/M01 A2975 RMK AO2 SLP075 P0002 T00061011
PACD 231950Z 00000KT 1SM -SN BR BKN008 OVC011 01/M01 A2975 RMK AO2 P0001
PACD 231930Z 03003KT 1 1/4SM -SN BR FEW004 BKN012 OVC028 00/M02 A2975 RMK AO2 P0001 T00001017
PACD 231916Z 30005KT 1 1/2SM -SN BR SCT006 BKN015 OVC028 00/M02 A2975 RMK AO2 P0000 T00001022
PACD 231903Z 30003KT 2 1/2SM -SN BR FEW006 BKN015 OVC035 00/M01 A2975 RMK AO2 P0000 T00001011
PACD 231853Z 31004KT 1SM -SN BR FEW006 OVC010 M01/M02 A2975 RMK AO2 SLP075 P0005 T10061017
PACD 231850Z 31004KT 3/4SM -SN BR VV008 M01/M02 A2975 RMK AO2 P0005
PACD 231840Z 29003KT 1/4SM +SN FZFG VV009 M01/M01 A2975 RMK AO2 P0004 T10061011
PACD 231823Z 32003KT 3/4SM -SN BR VV014 M01/M02 A2975 RMK AO2 P0002 T10061017
PACD 231809Z 30003KT 1SM -SN BR VV014 M01/M02 A2976 RMK AO2 P0001 T10061017
PACD 231753Z 29003KT 3/4SM -SN BR VV010 M01/M02 A2976 RMK AO2 SLP077 P0012 60013 T10061017 10000 21061 56016
PACD 231742Z 00000KT 1/2SM SN FZFG VV007 M01/M02 A2976 RMK AO2 P0011 T10061017
PACD 231729Z 00000KT 1/4SM +SN FZFG VV004 M01/M01 A2976 RMK AO2 P0009 T10061006
PACD 231707Z 17004KT 1/4SM +SN FZFG VV007 M01/M02 A2977 RMK AO2 P0002 T10111022
PACD 231653Z 14004KT 1/2SM SN FZFG VV011 M01/M02 A2977 RMK AO2 SNB20 SLP082 P0001 T10061022
PACD 231645Z 21003KT 3/4SM -SN BR VV014 M01/M02 A2978 RMK AO2 SNB20 P0000 T10061022
PACD 231640Z 18004KT 1 3/4SM -SN BR OVC019 M01/M02 A2978 RMK AO2 SNB20 P0000 T10061022
PACD 231627Z 16006KT 3/4SM -SN BR BKN025 OVC048 M01/M03 A2977 RMK AO2 SNB20 P0000 T10061028
PACD 231622Z 18010KT 1 3/4SM -SN FEW023 BKN035 OVC048 M01/M03 A2978 RMK AO2 SNB20 P0000 T10061033
PACD 231553Z AUTO 16005KT 10SM SCT038 OVC070 M01/M04 A2977 RMK AO2 SNB30E44 SLP084 P0000 T10061039 TSNO
PACD 231453Z AUTO 15008KT 10SM OVC065 M01/M05 A2980 RMK AO2 SLP093 T10111050 58023 TSNO
PACD 231353Z AUTO 19007KT 10SM BKN048 OVC060 M02/M06 A2983 RMK AO2 SLP102 T10221056 TSNO
PACD 231253Z AUTO 16009KT 10SM CLR M05/M07 A2985 RMK AO2 SLP110 T10501072 TSNO
PACD 231153Z AUTO 15008KT 10SM SCT050 BKN085 M03/M06 A2987 RMK AO2 SNB14E29 SLP116 P0000 60010 70015 I6000 T10331056 10000 21039 58005 TSNO